Thompsonville, Illinois
Current Conditions -  °F | °C
As of 4:15 AM on Sunday 25 Jan 2015 (Local Time) from KHSB Reporting Station
Scattered Clouds Scattered Clouds  
Wind Chill: 40°   Ceiling: Unl
Heat Index: 44°   Visibility: 10mi
Dew Point: 33°   Wind: 7mph
Humidity: 64%   Direction: 210°SSW
Pressure: 29.7"   Gusts: NA
Location:  37.92°N, 88.76°W
Report Text: KHSB 251015Z AUTO 21006KT 10SM SCT100 SCT120 07/00 A2970 RMK AO2 T00660003
Loading
Personal Weather Stations






























Interactive Weather Map New forecast layout! Learn more

10-Day Weather Forecast

Advertisements
Track Severe Weather on mobile